Time;durP1;ratioP1;P1;durP2;ratioP2;P2;SDS_P1;SDS_P2;PMS_P1;PMS_P2;Temp;Humidity;BMP_temperature;BMP_pressure;BME280_temperature;BME280_humidity;BME280_pressure;Samples;Min_cycle;Max_cycle;Signal;HPM_P1;HPM_P2
2022/11/30 00:02:03;;;;;;;31.35;20.02;;;7.00;97.70;;;;;;4954953;28;20281;-65
2022/11/30 00:04:34;;;;;;;31.02;21.17;;;7.00;97.70;;;;;;4955800;28;20731;-65
2022/11/30 00:07:01;;;;;;;30.38;19.33;;;7.00;97.70;;;;;;4955846;29;20193;-65
2022/11/30 00:09:29;;;;;;;33.35;18.45;;;7.00;97.70;;;;;;4956312;29;20194;-65
2022/11/30 00:11:58;;;;;;;29.73;17.42;;;6.90;97.60;;;;;;4955978;29;20200;-65
2022/11/30 00:14:30;;;;;;;32.65;20.13;;;6.90;97.60;;;;;;4954744;29;20576;-64
2022/11/30 00:16:57;;;;;;;31.38;19.70;;;6.90;98.10;;;;;;4955817;29;20194;-65
2022/11/30 00:19:30;;;;;;;27.88;17.63;;;6.90;97.70;;;;;;4956249;29;20261;-65
2022/11/30 00:21:58;;;;;;;27.67;17.23;;;6.90;97.70;;;;;;4955556;29;20205;-65
2022/11/30 00:24:31;;;;;;;33.10;17.35;;;6.90;97.80;;;;;;4956274;29;20563;-65
2022/11/30 00:27:03;;;;;;;30.02;17.95;;;6.90;97.60;;;;;;4954948;29;20197;-65
2022/11/30 00:29:31;;;;;;;27.38;16.90;;;6.80;97.60;;;;;;4955852;29;20272;-65
2022/11/30 00:32:03;;;;;;;29.50;18.80;;;6.90;97.70;;;;;;4955314;29;20190;-65
2022/11/30 00:34:32;;;;;;;28.02;17.23;;;6.80;97.70;;;;;;4955869;29;20201;-65
2022/11/30 00:37:01;;;;;;;22.92;15.68;;;6.80;97.70;;;;;;4955175;29;20206;-65
2022/11/30 00:39:31;;;;;;;30.98;19.40;;;6.80;97.60;;;;;;4955648;29;20747;-65
2022/11/30 00:42:01;;;;;;;26.48;16.40;;;6.80;97.70;;;;;;4955495;29;20189;-65
2022/11/30 00:44:32;;;;;;;27.42;18.15;;;6.80;97.50;;;;;;4955859;29;20603;-65
2022/11/30 00:47:05;;;;;;;26.02;16.48;;;6.80;97.40;;;;;;4954629;29;20261;-66
2022/11/30 00:49:34;;;;;;;24.67;16.48;;;6.80;97.40;;;;;;4955584;29;20233;-65
2022/11/30 00:52:05;;;;;;;24.10;15.95;;;6.80;97.40;;;;;;4954949;29;20552;-65
2022/11/30 00:54:38;;;;;;;23.95;15.55;;;6.70;97.40;;;;;;4945568;29;20711;-65
2022/11/30 00:57:07;;;;;;;23.88;15.60;;;6.70;97.30;;;;;;4955446;29;20194;-65
2022/11/30 00:59:41;;;;;;;23.67;16.42;;;6.70;97.10;;;;;;4954889;29;20589;-65
2022/11/30 01:02:10;;;;;;;23.80;15.20;;;6.70;97.00;;;;;;4955463;29;20205;-65
2022/11/30 01:04:39;;;;;;;24.17;15.32;;;6.70;96.80;;;;;;4954801;29;20603;-65
2022/11/30 01:07:07;;;;;;;23.67;14.73;;;6.60;96.70;;;;;;4955278;29;20233;-65
2022/11/30 01:09:34;;;;;;;22.70;14.55;;;6.60;96.60;;;;;;4954517;29;20194;-65
2022/11/30 01:12:02;;;;;;;22.88;14.50;;;6.60;96.70;;;;;;4955136;29;20645;-65
2022/11/30 01:14:31;;;;;;;22.10;14.30;;;6.60;96.70;;;;;;4954551;28;20241;-65
2022/11/30 01:17:01;;;;;;;22.95;13.93;;;6.60;96.70;;;;;;4954622;29;20198;-65
2022/11/30 01:19:33;;;;;;;21.40;14.57;;;6.60;96.50;;;;;;4954300;29;20214;-65
2022/11/30 01:22:07;;;;;;;22.17;14.77;;;6.60;96.50;;;;;;4954557;29;20194;-65
2022/11/30 01:24:40;;;;;;;22.50;15.20;;;6.60;96.30;;;;;;4955169;29;20273;-65
2022/11/30 01:27:07;;;;;;;22.17;15.68;;;6.60;96.30;;;;;;4954430;29;20185;-65
2022/11/30 01:29:35;;;;;;;24.92;15.55;;;6.60;96.30;;;;;;4954715;29;20205;-65
2022/11/30 01:32:02;;;;;;;23.60;16.77;;;6.50;96.40;;;;;;4954039;29;20217;-65
2022/11/30 01:34:44;;;;;;;24.98;16.88;;;6.50;96.60;;;;;;4954768;29;20194;-65
2022/11/30 01:37:12;;;;;;;30.42;17.95;;;6.50;96.70;;;;;;4954331;29;20193;-65
2022/11/30 01:39:44;;;;;;;29.63;17.92;;;6.50;96.50;;;;;;4954184;29;20261;-65
2022/11/30 01:42:26;;;;;;;21.98;14.93;;;6.50;96.60;;;;;;4954805;29;20530;-65
2022/11/30 01:45:00;;;;;;;23.42;13.38;;;6.40;96.60;;;;;;4954117;29;20649;-65
2022/11/30 01:47:33;;;;;;;24.10;16.30;;;6.50;96.60;;;;;;4954700;29;20197;-65
2022/11/30 01:50:09;;;;;;;19.65;15.18;;;6.40;96.10;;;;;;4954275;29;20182;-65
2022/11/30 01:52:42;;;;;;;23.20;14.25;;;6.40;96.20;;;;;;4954529;29;20197;-65
2022/11/30 01:55:18;;;;;;;29.23;14.00;;;6.40;96.10;;;;;;4953890;29;20245;-65
2022/11/30 01:57:56;;;;;;;25.65;14.65;;;6.40;96.10;;;;;;4954737;29;20272;-65
2022/11/30 02:00:30;;;;;;;21.75;15.40;;;6.30;96.30;;;;;;4953676;29;20213;-65
2022/11/30 02:03:09;;;;;;;22.48;13.13;;;6.30;96.30;;;;;;4953900;29;20194;-65
2022/11/30 02:05:41;;;;;;;21.23;12.70;;;6.30;96.40;;;;;;4954125;29;20283;-65
2022/11/30 02:08:13;;;;;;;22.27;12.23;;;6.30;96.50;;;;;;4954139;29;20728;-65
2022/11/30 02:10:50;;;;;;;18.83;12.32;;;6.20;96.60;;;;;;4954089;29;20533;-65
2022/11/30 02:13:50;;;;;;;14.02;10.27;;;6.20;96.60;;;;;;4954209;29;20197;-65
2022/11/30 02:16:33;;;;;;;17.13;9.10;;;6.20;96.60;;;;;;4953469;29;20190;-65
2022/11/30 02:19:21;;;;;;;13.52;9.80;;;6.20;96.50;;;;;;4952539;29;20201;-65
2022/11/30 02:22:07;;;;;;;13.82;9.65;;;6.20;96.50;;;;;;4953883;29;20273;-65
2022/11/30 02:25:01;;;;;;;12.88;9.43;;;6.20;96.60;;;;;;4953760;29;20196;-65
2022/11/30 02:27:49;;;;;;;14.18;10.20;;;6.20;96.60;;;;;;4960490;28;20656;-65
2022/11/30 02:30:24;;;;;;;16.50;9.70;;;6.20;96.60;;;;;;4959496;28;20189;-65
2022/11/30 02:32:58;;;;;;;12.90;8.57;;;6.20;96.60;;;;;;4960437;28;20203;-65
2022/11/30 02:35:30;;;;;;;13.90;9.30;;;6.20;96.80;;;;;;4959121;29;20197;-65
2022/11/30 02:38:04;;;;;;;13.18;8.80;;;6.20;96.70;;;;;;4960396;28;20554;-65
2022/11/30 02:40:35;;;;;;;14.40;10.63;;;6.20;96.70;;;;;;4959680;29;20557;-65
2022/11/30 02:43:09;;;;;;;16.27;9.23;;;6.20;96.60;;;;;;4960535;29;20567;-65
2022/11/30 02:45:48;;;;;;;14.35;9.18;;;6.20;96.50;;;;;;4960095;28;20232;-65
2022/11/30 02:48:29;;;;;;;14.68;9.45;;;6.20;96.30;;;;;;4960383;29;20240;-65
2022/11/30 02:51:06;;;;;;;14.95;8.68;;;6.10;96.10;;;;;;4948731;28;20291;-65
2022/11/30 02:53:38;;;;;;;15.48;11.70;;;6.10;96.00;;;;;;4959981;29;20197;-65
2022/11/30 02:56:25;;;;;;;20.45;10.88;;;6.10;95.80;;;;;;4941105;29;20194;-65
2022/11/30 02:58:55;;;;;;;12.60;8.68;;;6.10;95.80;;;;;;4940909;29;20249;-65
2022/11/30 03:01:29;;;;;;;19.40;10.77;;;6.10;95.90;;;;;;4959557;28;20221;-65
2022/11/30 03:03:58;;;;;;;18.42;11.10;;;6.10;96.10;;;;;;4959578;28;20292;-64
2022/11/30 03:06:28;;;;;;;13.77;9.45;;;6.00;96.00;;;;;;4959633;29;20193;-65
2022/11/30 03:08:59;;;;;;;14.63;9.65;;;6.10;96.10;;;;;;4959577;29;20201;-65
2022/11/30 03:11:30;;;;;;;15.45;9.98;;;6.10;95.90;;;;;;4959681;29;20178;-65
2022/11/30 03:14:03;;;;;;;16.70;11.60;;;6.00;95.90;;;;;;4959621;29;20716;-65
2022/11/30 03:16:34;;;;;;;14.43;9.15;;;6.10;96.00;;;;;;4959643;29;20547;-65
2022/11/30 03:19:07;;;;;;;16.25;10.10;;;6.10;95.70;;;;;;4959987;29;20194;-65
2022/11/30 03:21:34;;;;;;;15.93;12.07;;;6.00;95.60;;;;;;4959522;28;20232;-65
2022/11/30 03:24:02;;;;;;;15.57;10.45;;;6.00;95.40;;;;;;4960108;29;20193;-65
2022/11/30 03:26:34;;;;;;;11.60;9.10;;;6.00;95.30;;;;;;4959536;29;20185;-65
2022/11/30 03:29:07;;;;;;;17.77;9.63;;;6.00;95.20;;;;;;4959844;29;20200;-66
2022/11/30 03:31:38;;;;;;;18.77;10.50;;;6.00;95.10;;;;;;4959567;29;20194;-65
2022/11/30 03:34:15;;;;;;;15.68;9.73;;;6.00;95.20;;;;;;4960021;29;20194;-65
2022/11/30 03:36:47;;;;;;;15.80;9.82;;;6.00;94.70;;;;;;4958640;28;20200;-65
2022/11/30 03:39:18;;;;;;;15.70;9.23;;;5.90;94.60;;;;;;4956556;29;20194;-64
2022/11/30 03:41:50;;;;;;;16.05;11.00;;;5.90;94.60;;;;;;4956302;29;20305;-65
2022/11/30 03:44:33;;;;;;;15.55;10.63;;;5.90;94.60;;;;;;4956857;29;20649;-65
2022/11/30 03:47:08;;;;;;;16.10;10.73;;;5.80;94.50;;;;;;4956373;29;20277;-65
2022/11/30 03:49:42;;;;;;;17.67;9.95;;;5.70;94.50;;;;;;4957072;29;20201;-65
2022/11/30 03:52:13;;;;;;;15.05;10.80;;;5.70;94.70;;;;;;4956031;29;20193;-64
2022/11/30 03:54:45;;;;;;;15.80;9.32;;;5.70;94.60;;;;;;4956660;29;20225;-65
2022/11/30 03:57:18;;;;;;;16.10;10.35;;;5.70;94.30;;;;;;4956144;29;20189;-65
2022/11/30 03:59:46;;;;;;;17.75;10.30;;;5.70;94.50;;;;;;4956355;29;20257;-64
2022/11/30 04:02:18;;;;;;;17.45;10.30;;;5.70;94.50;;;;;;4956228;29;20190;-65
2022/11/30 04:04:46;;;;;;;15.52;8.88;;;5.70;94.20;;;;;;4956426;29;20237;-65
2022/11/30 04:07:18;;;;;;;20.02;11.95;;;5.70;94.10;;;;;;4956142;29;20190;-65
2022/11/30 04:09:46;;;;;;;20.55;11.75;;;5.70;94.10;;;;;;4955991;29;20194;-65
2022/11/30 04:12:31;;;;;;;19.90;12.50;;;5.60;94.10;;;;;;4956035;29;20201;-65
2022/11/30 04:14:59;;;;;;;17.08;9.93;;;5.60;94.30;;;;;;4956020;29;20196;-65
2022/11/30 04:17:29;;;;;;;18.67;11.55;;;5.60;94.30;;;;;;4956115;29;20677;-65
2022/11/30 04:20:02;;;;;;;18.60;12.00;;;5.60;94.20;;;;;;4955665;29;20221;-65
2022/11/30 04:22:30;;;;;;;18.00;12.27;;;5.60;93.90;;;;;;4955773;29;20259;-65
2022/11/30 04:25:01;;;;;;;21.77;13.35;;;5.60;93.50;;;;;;4955878;29;20193;-65
2022/11/30 04:27:31;;;;;;;16.98;12.07;;;5.50;93.50;;;;;;4956237;29;20649;-65
2022/11/30 04:30:00;;;;;;;22.13;13.25;;;5.50;93.70;;;;;;4955450;29;20190;-65
2022/11/30 04:32:29;;;;;;;22.95;13.55;;;5.50;93.50;;;;;;4955490;29;20928;-65
2022/11/30 04:35:00;;;;;;;23.80;12.85;;;5.50;93.80;;;;;;4955616;29;20194;-65
2022/11/30 04:37:27;;;;;;;19.00;12.25;;;5.40;94.00;;;;;;4956060;29;20202;-65
2022/11/30 04:39:57;;;;;;;23.65;14.15;;;5.40;94.10;;;;;;4955303;29;20186;-65
2022/11/30 04:42:27;;;;;;;20.92;13.13;;;5.40;94.20;;;;;;4955530;29;20189;-65
2022/11/30 04:44:57;;;;;;;23.20;14.30;;;5.40;94.30;;;;;;4955470;29;20197;-65
2022/11/30 04:47:31;;;;;;;24.88;14.13;;;5.40;94.20;;;;;;4955574;29;20197;-65
2022/11/30 04:49:59;;;;;;;20.10;13.02;;;5.40;94.20;;;;;;4954972;28;20695;-65
2022/11/30 04:52:30;;;;;;;21.77;13.43;;;5.40;94.10;;;;;;4955243;29;20229;-65
2022/11/30 04:55:11;;;;;;;25.73;14.20;;;5.40;94.20;;;;;;4954832;29;20646;-65
2022/11/30 04:57:41;;;;;;;18.67;12.73;;;5.30;94.20;;;;;;4946672;29;20185;-64
2022/11/30 05:00:12;;;;;;;21.77;12.65;;;5.30;94.30;;;;;;4955205;29;20204;-65
2022/11/30 05:02:46;;;;;;;22.90;14.07;;;5.30;94.30;;;;;;4938680;29;20532;-65
2022/11/30 05:05:14;;;;;;;24.92;14.98;;;5.30;94.50;;;;;;4955336;28;20225;-64
2022/11/30 05:07:44;;;;;;;22.50;12.48;;;5.30;94.40;;;;;;4955166;29;20190;-65
2022/11/30 05:10:17;;;;;;;20.08;13.18;;;5.30;94.40;;;;;;4955115;29;20193;-64
2022/11/30 05:12:46;;;;;;;24.63;13.10;;;5.30;94.30;;;;;;4955051;29;20192;-65
2022/11/30 05:15:14;;;;;;;23.00;15.90;;;5.20;94.00;;;;;;4955114;29;20204;-65
2022/11/30 05:17:46;;;;;;;20.23;12.63;;;5.30;94.40;;;;;;4955009;29;20190;-65
2022/11/30 05:20:15;;;;;;;21.88;14.20;;;5.30;94.40;;;;;;4954987;29;20194;-65
2022/11/30 05:22:50;;;;;;;18.58;13.15;;;5.20;94.50;;;;;;4954933;29;20272;-65
2022/11/30 05:25:23;;;;;;;21.35;12.15;;;5.20;94.60;;;;;;4955064;29;20193;-65
2022/11/30 05:27:52;;;;;;;22.77;14.13;;;5.20;94.70;;;;;;4954895;29;20225;-65
2022/11/30 05:30:25;;;;;;;24.13;13.90;;;5.20;94.60;;;;;;4955233;29;20198;-65
2022/11/30 05:32:58;;;;;;;22.15;13.48;;;5.20;94.60;;;;;;4955062;29;20189;-65
2022/11/30 05:35:29;;;;;;;21.25;12.88;;;5.30;94.50;;;;;;4955005;29;20205;-65
2022/11/30 05:37:57;;;;;;;26.98;15.73;;;5.20;94.40;;;;;;4954620;29;20190;-65
2022/11/30 05:40:31;;;;;;;20.13;12.90;;;5.20;94.50;;;;;;4954988;29;20285;-65
2022/11/30 05:42:59;;;;;;;21.73;14.48;;;5.20;94.50;;;;;;4953437;29;20188;-65
2022/11/30 05:45:27;;;;;;;22.65;15.00;;;5.20;94.50;;;;;;4954826;29;20281;-65
2022/11/30 05:47:55;;;;;;;21.52;13.13;;;5.20;94.60;;;;;;4954365;29;20653;-65
2022/11/30 05:50:22;;;;;;;19.13;11.90;;;5.20;94.80;;;;;;4954827;29;20676;-65
2022/11/30 05:52:54;;;;;;;23.15;14.25;;;5.20;94.60;;;;;;4953844;29;20246;-65
2022/11/30 05:55:22;;;;;;;21.05;13.27;;;5.20;94.30;;;;;;4954590;29;20194;-65
2022/11/30 05:57:50;;;;;;;22.35;13.35;;;5.20;94.40;;;;;;4954041;29;20253;-65
2022/11/30 06:00:24;;;;;;;18.40;11.60;;;5.20;94.10;;;;;;4953989;28;20616;-65
2022/11/30 06:02:57;;;;;;;21.98;12.90;;;5.20;94.00;;;;;;4954286;29;20264;-65
2022/11/30 06:05:27;;;;;;;20.15;13.35;;;5.10;93.90;;;;;;4954785;29;20253;-64
2022/11/30 06:08:06;;;;;;;22.63;13.32;;;5.10;94.10;;;;;;4954124;29;20268;-65
2022/11/30 06:10:38;;;;;;;24.20;14.70;;;5.20;94.30;;;;;;4954808;29;20206;-65
2022/11/30 06:13:17;;;;;;;23.15;13.70;;;5.10;94.00;;;;;;4953618;29;20244;-65
2022/11/30 06:15:45;;;;;;;24.70;14.68;;;5.10;93.90;;;;;;4954509;29;20206;-65
2022/11/30 06:18:14;;;;;;;24.13;13.27;;;5.10;93.90;;;;;;4953668;29;20649;-65
2022/11/30 06:20:44;;;;;;;19.52;13.32;;;5.10;93.90;;;;;;4954438;29;20609;-65
2022/11/30 06:23:13;;;;;;;22.42;13.27;;;5.10;94.10;;;;;;4954563;29;20289;-64
2022/11/30 06:25:41;;;;;;;22.95;14.35;;;5.00;94.30;;;;;;4954012;29;20692;-65
2022/11/30 06:28:09;;;;;;;25.10;14.20;;;5.00;94.40;;;;;;4954197;29;20193;-65
2022/11/30 06:30:39;;;;;;;26.90;14.88;;;5.00;94.40;;;;;;4954162;29;20190;-65
2022/11/30 06:33:09;;;;;;;22.08;13.75;;;5.00;94.50;;;;;;4954342;29;20190;-64
2022/11/30 06:35:37;;;;;;;25.45;14.88;;;5.00;94.50;;;;;;4954260;29;20648;-65
2022/11/30 06:38:07;;;;;;;22.63;13.45;;;5.00;94.30;;;;;;4953961;29;20201;-64
2022/11/30 06:40:41;;;;;;;22.15;14.73;;;5.00;94.50;;;;;;4954262;29;20280;-65
2022/11/30 06:43:13;;;;;;;26.75;15.07;;;5.00;94.40;;;;;;4953638;29;20272;-65
2022/11/30 06:45:47;;;;;;;24.58;13.57;;;5.00;94.50;;;;;;4952310;28;20751;-65
2022/11/30 06:48:17;;;;;;;23.40;14.50;;;5.00;94.70;;;;;;4944059;29;20192;-65
2022/11/30 06:50:50;;;;;;;23.08;14.45;;;5.00;94.60;;;;;;4947799;29;20633;-65
2022/11/30 06:53:22;;;;;;;25.67;13.98;;;5.00;94.60;;;;;;4950827;29;20186;-65
2022/11/30 06:55:51;;;;;;;27.20;14.38;;;5.00;94.70;;;;;;4945545;29;20557;-65
2022/11/30 06:58:19;;;;;;;24.08;13.85;;;5.00;94.80;;;;;;4953033;29;20201;-65
2022/11/30 07:00:51;;;;;;;24.38;15.73;;;5.10;94.80;;;;;;4952255;29;20190;-65
2022/11/30 07:03:19;;;;;;;23.77;15.10;;;5.10;94.90;;;;;;4950351;29;20189;-64
2022/11/30 07:05:50;;;;;;;25.55;14.40;;;5.00;94.90;;;;;;4930463;29;20286;-64
2022/11/30 07:08:19;;;;;;;26.38;13.68;;;5.00;95.00;;;;;;4933377;29;20191;-64
2022/11/30 07:10:47;;;;;;;24.92;15.35;;;5.00;94.90;;;;;;4934896;29;20195;-64
2022/11/30 07:13:20;;;;;;;25.20;14.20;;;5.10;95.00;;;;;;4938387;29;20194;-64
2022/11/30 07:15:47;;;;;;;26.50;15.13;;;5.10;95.00;;;;;;4938416;29;20630;-64
2022/11/30 07:18:15;;;;;;;22.27;14.80;;;5.10;95.10;;;;;;4938434;29;20582;-65
2022/11/30 07:20:42;;;;;;;26.98;14.90;;;5.10;95.20;;;;;;4938620;29;20222;-64
2022/11/30 07:26:08;;;;;;;23.13;14.68;;;5.20;95.10;;;;;;4938300;29;20193;-64
2022/11/30 07:28:41;;;;;;;22.52;14.77;;;5.20;95.10;;;;;;4938615;29;20190;-65
2022/11/30 07:31:18;;;;;;;26.35;16.08;;;5.20;94.90;;;;;;4937903;29;20187;-64
2022/11/30 07:33:46;;;;;;;28.52;15.65;;;5.20;94.80;;;;;;4938167;29;20198;-64
2022/11/30 07:36:14;;;;;;;25.92;13.70;;;5.20;94.50;;;;;;4938003;29;20317;-64
2022/11/30 07:38:41;;;;;;;23.90;14.40;;;5.20;94.30;;;;;;4937846;29;20604;-64
2022/11/30 07:41:08;;;;;;;23.15;15.18;;;5.20;94.40;;;;;;4937299;29;20223;-64
2022/11/30 07:43:37;;;;;;;23.20;14.48;;;5.20;94.50;;;;;;4937978;29;20206;-64
2022/11/30 07:46:06;;;;;;;24.35;13.05;;;5.20;94.50;;;;;;4937466;29;20762;-64
2022/11/30 07:48:34;;;;;;;28.15;15.63;;;5.30;94.50;;;;;;4937203;29;20186;-64
2022/11/30 07:51:05;;;;;;;24.90;14.10;;;5.30;94.50;;;;;;4938130;29;20677;-65
2022/11/30 07:53:37;;;;;;;25.65;14.80;;;5.20;94.20;;;;;;4938132;29;20658;-65
2022/11/30 07:56:05;;;;;;;25.75;15.25;;;5.20;94.10;;;;;;4938203;29;20250;-65
2022/11/30 07:58:33;;;;;;;28.85;14.00;;;5.20;94.20;;;;;;4937942;29;20249;-65
2022/11/30 08:01:06;;;;;;;27.80;15.40;;;5.20;94.30;;;;;;4937725;29;20202;-65
2022/11/30 08:03:33;;;;;;;26.45;14.48;;;5.20;94.40;;;;;;4940347;29;20241;-65
2022/11/30 08:06:02;;;;;;;29.85;14.75;;;5.20;94.40;;;;;;4957077;29;20545;-65
2022/11/30 08:08:31;;;;;;;33.25;15.95;;;5.30;94.50;;;;;;4956889;29;20381;-65
2022/11/30 08:10:58;;;;;;;34.00;17.70;;;5.30;94.50;;;;;;4956710;29;20206;-65
2022/11/30 08:13:26;;;;;;;28.00;16.10;;;5.30;94.50;;;;;;4956937;29;20241;-65
2022/11/30 08:15:53;;;;;;;32.92;15.15;;;5.20;94.70;;;;;;4956916;29;20242;-65
2022/11/30 08:18:21;;;;;;;27.33;14.82;;;5.20;95.30;;;;;;4956609;29;20645;-65
2022/11/30 08:20:55;;;;;;;28.90;17.20;;;5.20;94.90;;;;;;4956695;29;20233;-65
2022/11/30 08:23:25;;;;;;;27.80;15.20;;;5.30;95.00;;;;;;4956033;28;20197;-65
2022/11/30 08:25:52;;;;;;;31.88;16.00;;;5.30;95.10;;;;;;4956754;29;20221;-65
2022/11/30 08:28:19;;;;;;;25.45;14.80;;;5.30;95.10;;;;;;4956702;29;20240;-65
2022/11/30 08:30:47;;;;;;;27.73;16.35;;;5.30;95.20;;;;;;4950762;29;20208;-65
2022/11/30 08:33:14;;;;;;;26.42;14.68;;;5.40;95.10;;;;;;4954481;29;20605;-65
2022/11/30 08:35:54;;;;;;;28.58;15.77;;;5.30;95.20;;;;;;4955487;29;20541;-65
2022/11/30 08:38:21;;;;;;;27.88;17.65;;;5.40;95.60;;;;;;4955315;29;20213;-66
2022/11/30 08:40:48;;;;;;;33.33;17.60;;;5.50;95.40;;;;;;4955308;29;20193;-65
2022/11/30 08:43:15;;;;;;;29.60;17.30;;;5.50;95.40;;;;;;4955075;29;20225;-65
2022/11/30 08:45:42;;;;;;;28.83;16.00;;;5.60;95.50;;;;;;4955055;29;20704;-64
2022/11/30 08:48:09;;;;;;;27.92;16.92;;;5.60;95.50;;;;;;4955413;29;20645;-65
2022/11/30 08:50:36;;;;;;;29.38;19.17;;;5.70;95.30;;;;;;4955313;29;20233;-65
2022/11/30 08:53:05;;;;;;;32.75;17.48;;;5.60;95.00;;;;;;4954782;29;20292;-65
2022/11/30 08:55:32;;;;;;;29.35;16.90;;;5.70;94.90;;;;;;4955089;29;20249;-65
2022/11/30 08:57:59;;;;;;;29.50;17.13;;;5.70;94.90;;;;;;4955190;29;20213;-65
2022/11/30 09:00:26;;;;;;;30.92;16.80;;;5.80;95.00;;;;;;4955305;29;20198;-65
2022/11/30 09:02:53;;;;;;;31.83;17.48;;;5.80;95.00;;;;;;4954938;29;20747;-66
2022/11/30 09:05:21;;;;;;;33.60;16.60;;;5.80;95.00;;;;;;4953799;28;20624;-65
2022/11/30 09:07:48;;;;;;;29.30;15.35;;;5.90;94.80;;;;;;4954562;29;20201;-64
2022/11/30 09:10:16;;;;;;;26.33;15.90;;;5.90;94.70;;;;;;4955099;29;20194;-65
2022/11/30 09:12:43;;;;;;;30.55;16.60;;;6.00;94.50;;;;;;4955018;29;20561;-66
2022/11/30 09:15:11;;;;;;;28.13;15.07;;;6.00;94.70;;;;;;4954834;29;20252;-66
2022/11/30 09:17:38;;;;;;;29.40;17.08;;;6.00;94.90;;;;;;4954909;29;20292;-66
2022/11/30 09:20:06;;;;;;;26.20;15.55;;;6.00;94.40;;;;;;4954846;29;20198;-66
2022/11/30 09:22:33;;;;;;;28.45;15.73;;;6.00;94.30;;;;;;4954814;29;20740;-66
2022/11/30 09:25:00;;;;;;;27.30;15.63;;;6.00;94.40;;;;;;4954452;29;20276;-66
2022/11/30 09:27:31;;;;;;;32.20;17.60;;;6.00;94.60;;;;;;4954414;29;20233;-66
2022/11/30 09:29:58;;;;;;;27.45;16.00;;;6.00;94.70;;;;;;4954796;29;20210;-66
2022/11/30 09:32:25;;;;;;;24.45;16.70;;;6.10;95.00;;;;;;4953512;29;20186;-67
2022/11/30 09:34:53;;;;;;;28.23;16.77;;;6.10;95.10;;;;;;4953695;28;20709;-66
2022/11/30 09:37:21;;;;;;;29.00;16.20;;;6.20;95.10;;;;;;4954192;29;20202;-66
2022/11/30 09:39:48;;;;;;;23.38;16.45;;;6.20;94.70;;;;;;4954512;29;20720;-66
2022/11/30 09:42:49;;;;;;;26.80;15.77;;;6.20;94.80;;;;;;4954089;29;20228;-66
2022/11/30 09:45:22;;;;;;;24.50;15.00;;;6.30;94.80;;;;;;4953968;29;20660;-65
2022/11/30 09:48:10;;;;;;;26.33;15.05;;;6.30;94.90;;;;;;4953910;29;20244;-66
2022/11/30 09:50:42;;;;;;;25.08;16.00;;;6.40;95.00;;;;;;4954259;29;20193;-65
2022/11/30 09:53:13;;;;;;;24.75;15.73;;;6.40;95.00;;;;;;4954418;29;20260;-66
2022/11/30 09:55:44;;;;;;;28.25;15.20;;;6.50;95.00;;;;;;4954256;29;20189;-66
2022/11/30 09:58:25;;;;;;;23.83;14.15;;;6.50;95.00;;;;;;4954288;29;20194;-66
2022/11/30 10:00:52;;;;;;;25.15;14.38;;;6.60;95.00;;;;;;4954058;29;20599;-66
2022/11/30 10:03:23;;;;;;;20.48;13.45;;;6.60;94.40;;;;;;4953802;29;20230;-65
2022/11/30 10:05:56;;;;;;;24.73;14.77;;;6.60;94.50;;;;;;4953941;29;20268;-66
2022/11/30 10:08:50;;;;;;;23.98;15.00;;;6.70;94.70;;;;;;4954080;29;20194;-66
2022/11/30 10:11:38;;;;;;;23.27;13.80;;;6.70;94.50;;;;;;4954238;29;20587;-66
2022/11/30 10:14:28;;;;;;;21.48;13.77;;;6.70;94.10;;;;;;4954125;29;20645;-66
2022/11/30 10:17:04;;;;;;;20.00;12.65;;;6.70;94.20;;;;;;4921795;29;20197;-66
2022/11/30 10:19:51;;;;;;;22.33;11.10;;;6.70;94.50;;;;;;4954168;29;20205;-66
2022/11/30 10:22:27;;;;;;;20.17;12.60;;;6.80;94.30;;;;;;4953953;29;20272;-66
2022/11/30 10:25:13;;;;;;;18.83;12.27;;;6.80;94.30;;;;;;4953944;29;20675;-66
2022/11/30 10:27:50;;;;;;;19.60;11.40;;;6.80;94.00;;;;;;4953804;29;20196;-66
2022/11/30 10:30:22;;;;;;;26.52;17.20;;;6.80;93.80;;;;;;4953777;29;20197;-66
2022/11/30 10:32:52;;;;;;;51.15;28.75;;;6.70;93.30;;;;;;4953635;29;20545;-65
2022/11/30 10:35:34;;;;;;;39.78;23.30;;;6.70;93.50;;;;;;4953809;29;20202;-65
2022/11/30 10:38:11;;;;;;;32.53;20.15;;;6.60;93.60;;;;;;4954656;29;20201;-65
2022/11/30 10:40:43;;;;;;;31.35;19.50;;;6.70;93.80;;;;;;4954259;29;20198;-65
2022/11/30 10:43:20;;;;;;;23.50;13.90;;;6.70;93.60;;;;;;4954622;29;20281;-65
2022/11/30 10:45:50;;;;;;;24.63;13.90;;;6.70;93.60;;;;;;4954515;29;20633;-65
2022/11/30 10:48:23;;;;;;;24.08;15.52;;;6.80;93.40;;;;;;4958255;29;20229;-65
2022/11/30 10:50:51;;;;;;;26.50;14.25;;;6.70;93.10;;;;;;4958420;29;20189;-65
2022/11/30 10:53:18;;;;;;;20.52;13.27;;;6.70;93.10;;;;;;4958418;29;20198;-65
2022/11/30 10:55:51;;;;;;;19.55;12.95;;;6.60;93.20;;;;;;4958165;29;20233;-65
2022/11/30 10:58:23;;;;;;;21.27;13.50;;;6.60;93.10;;;;;;4958394;29;20300;-64
2022/11/30 11:01:02;;;;;;;20.80;13.02;;;6.60;93.10;;;;;;4958209;29;20221;-65
2022/11/30 11:03:29;;;;;;;18.80;11.77;;;6.60;93.10;;;;;;4958062;29;20256;-65
2022/11/30 11:06:14;;;;;;;18.33;12.43;;;6.60;93.10;;;;;;4958247;29;20197;-65
2022/11/30 11:08:44;;;;;;;20.70;12.60;;;6.50;93.00;;;;;;4958064;29;20281;-66
2022/11/30 11:11:29;;;;;;;18.05;11.52;;;6.50;93.00;;;;;;4957927;29;20204;-65
2022/11/30 11:14:14;;;;;;;20.35;12.25;;;6.50;92.90;;;;;;4956671;29;20641;-65
2022/11/30 11:16:55;;;;;;;16.38;10.05;;;6.50;92.90;;;;;;4957783;29;20194;-65
2022/11/30 11:19:42;;;;;;;16.73;10.25;;;6.50;93.20;;;;;;4956970;29;20237;-65
2022/11/30 11:22:19;;;;;;;16.27;9.75;;;6.50;93.30;;;;;;4957717;29;20221;-65
2022/11/30 11:24:47;;;;;;;16.38;10.30;;;6.50;93.30;;;;;;4956680;29;20204;-65
2022/11/30 11:27:24;;;;;;;15.27;9.27;;;6.50;93.10;;;;;;4957744;29;20186;-64
2022/11/30 11:30:01;;;;;;;15.48;11.20;;;6.50;93.10;;;;;;4957055;29;20194;-65
2022/11/30 11:32:30;;;;;;;15.40;9.85;;;6.50;93.30;;;;;;4957580;29;20276;-65
2022/11/30 11:34:58;;;;;;;14.48;9.70;;;6.50;93.30;;;;;;4956815;29;20194;-65
2022/11/30 11:37:32;;;;;;;17.20;10.18;;;6.50;93.30;;;;;;4957212;29;20260;-65
2022/11/30 11:40:03;;;;;;;16.08;10.35;;;6.50;93.30;;;;;;4956820;29;20197;-65
2022/11/30 11:42:33;;;;;;;16.40;10.70;;;6.50;93.50;;;;;;4957440;29;20323;-65
2022/11/30 11:45:02;;;;;;;15.93;10.73;;;6.50;93.50;;;;;;4956811;29;20204;-65
2022/11/30 11:47:39;;;;;;;16.05;9.18;;;6.50;93.50;;;;;;4956767;29;20193;-65
2022/11/30 11:50:26;;;;;;;16.30;9.85;;;6.60;94.00;;;;;;4957248;29;20193;-65
2022/11/30 11:53:21;;;;;;;16.20;9.68;;;6.60;93.60;;;;;;4957489;29;20192;-65
2022/11/30 11:55:54;;;;;;;15.20;10.10;;;6.50;93.60;;;;;;4956984;29;20201;-65
2022/11/30 11:58:38;;;;;;;17.17;8.85;;;6.60;93.50;;;;;;4955801;28;20194;-65
2022/11/30 12:01:21;;;;;;;19.45;10.50;;;6.60;93.50;;;;;;4957044;29;20189;-65
2022/11/30 12:04:05;;;;;;;14.50;9.45;;;6.60;93.60;;;;;;4956559;28;20324;-66
2022/11/30 12:06:35;;;;;;;15.95;9.57;;;6.60;93.30;;;;;;4956540;29;20198;-65
2022/11/30 12:09:12;;;;;;;14.77;9.48;;;6.60;93.10;;;;;;4957129;29;20558;-65
2022/11/30 12:11:42;;;;;;;13.65;9.75;;;6.60;93.10;;;;;;4956913;29;20194;-65
2022/11/30 12:14:12;;;;;;;14.63;8.40;;;6.60;92.80;;;;;;4956888;29;20198;-65
2022/11/30 12:17:04;;;;;;;13.65;7.90;;;6.60;92.90;;;;;;4956566;29;20194;-65
2022/11/30 12:19:39;;;;;;;13.55;7.93;;;6.60;93.00;;;;;;4956839;29;20288;-65
2022/11/30 12:22:39;;;;;;;12.77;9.70;;;6.60;93.10;;;;;;4957024;29;20252;-65
2022/11/30 12:25:20;;;;;;;15.18;8.48;;;6.60;93.10;;;;;;4956481;29;20198;-65
2022/11/30 12:27:55;;;;;;;13.20;8.52;;;6.60;93.00;;;;;;4956418;29;20253;-65
2022/11/30 12:30:32;;;;;;;14.77;8.35;;;6.60;93.20;;;;;;4956718;29;20275;-65
2022/11/30 12:33:12;;;;;;;12.07;8.50;;;6.60;92.80;;;;;;4956662;29;20279;-65
2022/11/30 12:36:01;;;;;;;14.40;8.88;;;6.60;92.80;;;;;;4956415;29;20201;-65
2022/11/30 12:38:39;;;;;;;9.80;6.65;;;6.70;92.70;;;;;;4956186;29;20197;-65
2022/11/30 12:41:27;;;;;;;16.52;10.52;;;6.60;92.60;;;;;;4956513;29;20229;-65
2022/11/30 12:44:02;;;;;;;14.80;10.38;;;6.60;92.20;;;;;;4956406;29;20288;-65
2022/11/30 12:46:39;;;;;;;13.93;9.25;;;6.50;92.30;;;;;;4956232;29;20194;-65
2022/11/30 12:49:27;;;;;;;12.35;8.00;;;6.50;92.20;;;;;;4956039;29;20237;-65
2022/11/30 12:52:06;;;;;;;11.18;7.20;;;6.50;92.20;;;;;;4956360;29;20773;-65
2022/11/30 12:54:40;;;;;;;16.42;8.45;;;6.50;92.00;;;;;;4956180;29;20276;-65
2022/11/30 12:57:16;;;;;;;12.18;8.52;;;6.50;91.80;;;;;;4956281;29;20190;-65
2022/11/30 12:59:52;;;;;;;10.68;7.38;;;6.40;91.90;;;;;;4956011;29;20604;-65
2022/11/30 13:02:54;;;;;;;56.60;33.70;;;6.40;91.90;;;;;;4955752;29;20197;-64
2022/11/30 13:05:30;;;;;;;20.98;16.15;;;6.40;91.90;;;;;;4955921;28;20229;-65
2022/11/30 13:08:05;;;;;;;16.00;10.27;;;6.40;91.90;;;;;;4955593;29;20201;-65
2022/11/30 13:10:39;;;;;;;12.90;9.20;;;6.40;92.00;;;;;;4955490;28;20284;-66